Terminal Aerodrome Forecast
Issued by NWS Albany, NY

Home | Current Version | Previous Version | Text Only | Print | Product List | Glossary On
Versions: 1 2 3 4 5 6 7 8 9 10 11 12 13 14 15 16 17 18 19 20 21 22
000
FTUS41 KALY 210500
TAFPOU
TAF
KPOU 210534Z 2106/2206 00000KT P6SM OVC025
     FM210900 00000KT P6SM VCSH OVC020
      TEMPO 2111/2115 4SM -SHSN OVC015
     FM211500 34003KT P6SM OVC030
     FM212000 34003KT P6SM BKN035=

USA.gov is the U.S. government's official web portal to all federal, state and local government web resources and services.